createdAt,value
2023-09-07T00:00:11.860Z,74.32
2023-09-07T00:01:02.268Z,74.32
2023-09-07T00:01:52.235Z,74.32
2023-09-07T00:02:42.733Z,74.35
2023-09-07T00:03:32.355Z,74.32
2023-09-07T00:04:22.499Z,74.36
2023-09-07T00:05:12.448Z,74.34
2023-09-07T00:06:02.485Z,74.35
2023-09-07T00:06:52.499Z,74.33
2023-09-07T00:07:42.664Z,74.35
2023-09-07T00:08:33.064Z,74.29
2023-09-07T00:09:23.078Z,74.35
2023-09-07T00:10:13.067Z,74.30
2023-09-07T00:11:03.130Z,74.30
2023-09-07T00:11:53.113Z,74.33
2023-09-07T00:12:43.283Z,74.29
2023-09-07T00:13:33.366Z,74.27
2023-09-07T00:14:23.349Z,74.27
2023-09-07T00:15:13.371Z,74.26
2023-09-07T00:16:03.560Z,74.32
2023-09-07T00:16:53.608Z,74.30
2023-09-07T00:17:43.634Z,74.30
2023-09-07T00:18:33.652Z,74.26
2023-09-07T00:19:23.710Z,74.31
2023-09-07T00:20:13.717Z,74.27
2023-09-07T00:21:03.814Z,74.32
2023-09-07T00:21:53.931Z,74.27
2023-09-07T00:22:44.066Z,74.30
2023-09-07T00:23:34.051Z,74.28
2023-09-07T00:24:24.146Z,74.25
2023-09-07T00:25:14.257Z,74.26
2023-09-07T00:26:04.269Z,74.28
2023-09-07T00:26:54.283Z,74.29
2023-09-07T00:27:44.414Z,74.29
2023-09-07T00:28:34.814Z,74.27
2023-09-07T00:29:24.614Z,74.29
2023-09-07T00:30:14.525Z,74.29
2023-09-07T00:31:04.653Z,74.29
2023-09-07T00:31:54.757Z,74.25
2023-09-07T00:32:44.756Z,74.31
2023-09-07T00:33:34.778Z,74.30
2023-09-07T00:34:24.957Z,74.29
2023-09-07T00:35:14.948Z,74.30
2023-09-07T00:36:05.051Z,74.30
2023-09-07T00:36:55.078Z,74.30
2023-09-07T00:37:45.200Z,74.27
2023-09-07T00:38:35.190Z,74.26
2023-09-07T00:39:25.274Z,74.27
2023-09-07T00:40:15.326Z,74.27
2023-09-07T00:41:05.395Z,74.27
2023-09-07T00:41:55.460Z,74.24
2023-09-07T00:42:45.572Z,74.24
2023-09-07T00:43:35.621Z,74.25
2023-09-07T00:44:25.722Z,74.27
2023-09-07T00:45:15.694Z,74.24
2023-09-07T00:46:05.883Z,74.24
2023-09-07T00:46:55.892Z,74.29
2023-09-07T00:47:45.912Z,74.28
2023-09-07T00:48:36.008Z,74.26
2023-09-07T00:49:26.280Z,74.26
2023-09-07T00:50:16.105Z,74.25
2023-09-07T00:51:06.194Z,74.26
2023-09-07T00:51:56.209Z,74.26
2023-09-07T00:52:46.338Z,74.24
2023-09-07T00:53:36.359Z,74.25
2023-09-07T00:54:26.508Z,74.25
2023-09-07T00:55:16.519Z,74.21
2023-09-07T00:56:06.630Z,74.26
2023-09-07T00:56:56.633Z,74.25
2023-09-07T00:57:46.981Z,74.23
2023-09-07T00:58:36.999Z,74.24
2023-09-07T00:59:27.054Z,74.24
2023-09-07T01:00:17.037Z,74.25
2023-09-07T01:01:07.270Z,74.21
2023-09-07T01:01:57.262Z,74.19
2023-09-07T01:02:47.420Z,74.20
2023-09-07T01:03:37.374Z,74.20
2023-09-07T01:04:27.492Z,74.20
2023-09-07T01:05:17.326Z,74.23
2023-09-07T01:06:07.413Z,74.20
2023-09-07T01:06:57.709Z,74.23
2023-09-07T01:07:47.893Z,74.20
2023-09-07T01:08:37.916Z,74.23
2023-09-07T01:09:27.946Z,74.24
2023-09-07T01:10:17.890Z,74.23
2023-09-07T01:11:08.076Z,74.19
2023-09-07T01:11:58.121Z,74.25
2023-09-07T01:12:48.112Z,74.17
2023-09-07T01:13:38.199Z,74.16
2023-09-07T01:14:28.296Z,74.19
2023-09-07T01:15:18.236Z,74.15
2023-09-07T01:16:08.542Z,74.22
2023-09-07T01:16:58.513Z,74.20
2023-09-07T01:17:48.605Z,74.20
2023-09-07T01:18:38.583Z,74.21
2023-09-07T01:19:28.656Z,74.20
2023-09-07T01:20:18.781Z,74.18
2023-09-07T01:21:08.964Z,74.20
2023-09-07T01:21:58.895Z,74.22
2023-09-07T01:22:49.404Z,74.20
2023-09-07T01:23:39.260Z,74.21
2023-09-07T01:24:29.383Z,74.17
2023-09-07T01:25:19.365Z,74.19
2023-09-07T01:26:09.506Z,74.22
2023-09-07T01:26:59.490Z,74.19
2023-09-07T01:27:49.651Z,74.17
2023-09-07T01:28:39.590Z,74.20
2023-09-07T01:29:29.728Z,74.21
2023-09-07T01:30:19.786Z,74.20
2023-09-07T01:31:09.860Z,74.16
2023-09-07T01:31:59.838Z,74.18
2023-09-07T01:32:50.037Z,74.18
2023-09-07T01:33:39.932Z,74.19
2023-09-07T01:34:30.144Z,74.17
2023-09-07T01:35:20.164Z,74.22
2023-09-07T01:36:10.188Z,74.24
2023-09-07T01:37:00.165Z,74.17
2023-09-07T01:37:50.397Z,74.18
2023-09-07T01:38:40.308Z,74.18
2023-09-07T01:39:30.414Z,74.19
2023-09-07T01:40:20.438Z,74.15
2023-09-07T01:41:10.544Z,74.19
2023-09-07T01:42:00.567Z,74.22
2023-09-07T01:42:50.681Z,74.16
2023-09-07T01:43:40.672Z,74.18
2023-09-07T01:44:30.799Z,74.16
2023-09-07T01:45:20.771Z,74.19
2023-09-07T01:46:10.906Z,74.17
2023-09-07T01:47:00.991Z,74.19
2023-09-07T01:47:51.103Z,74.14
2023-09-07T01:48:41.034Z,74.17
2023-09-07T01:49:31.119Z,74.13
2023-09-07T01:50:21.081Z,74.15
2023-09-07T01:51:11.218Z,74.19
2023-09-07T01:52:01.200Z,74.13
2023-09-07T01:52:51.366Z,74.16
2023-09-07T01:53:41.310Z,74.15
2023-09-07T01:54:31.444Z,74.14
2023-09-07T01:55:21.456Z,74.15
2023-09-07T01:56:11.673Z,74.12
2023-09-07T01:57:01.547Z,74.14
2023-09-07T01:57:51.713Z,74.19
2023-09-07T01:58:41.657Z,74.16
2023-09-07T01:59:31.788Z,74.16
2023-09-07T02:00:21.749Z,74.19
2023-09-07T02:01:11.977Z,74.16
2023-09-07T02:02:01.962Z,74.13
2023-09-07T02:02:52.097Z,74.13
2023-09-07T02:03:42.043Z,74.19
2023-09-07T02:04:32.272Z,74.13
2023-09-07T02:05:22.204Z,74.13
2023-09-07T02:06:12.249Z,74.13
2023-09-07T02:07:02.274Z,74.15
2023-09-07T02:07:52.410Z,74.15
2023-09-07T02:08:42.511Z,74.13
2023-09-07T02:09:32.676Z,74.15
2023-09-07T02:10:22.618Z,74.11
2023-09-07T02:11:12.760Z,74.13
2023-09-07T02:12:02.746Z,74.18
2023-09-07T02:12:52.840Z,74.13
2023-09-07T02:13:42.887Z,74.13
2023-09-07T02:14:33.022Z,74.14
2023-09-07T02:15:23.005Z,74.15
2023-09-07T02:16:13.252Z,74.17
2023-09-07T02:17:03.240Z,74.13
2023-09-07T02:17:53.256Z,74.16
2023-09-07T02:18:43.206Z,74.14
2023-09-07T02:19:33.345Z,74.17
2023-09-07T02:20:23.386Z,74.18
2023-09-07T02:21:13.419Z,74.21
2023-09-07T02:22:03.524Z,74.20
2023-09-07T02:22:53.634Z,74.20
2023-09-07T02:23:43.703Z,74.21
2023-09-07T02:24:33.780Z,74.20
2023-09-07T02:25:23.767Z,74.23
2023-09-07T02:26:13.927Z,74.27
2023-09-07T02:27:03.890Z,74.29
2023-09-07T02:27:53.978Z,74.29
2023-09-07T02:28:44.091Z,74.22
2023-09-07T02:29:34.251Z,74.24
2023-09-07T02:30:24.351Z,74.29
2023-09-07T02:31:14.341Z,74.34
2023-09-07T02:32:04.283Z,74.31
2023-09-07T02:32:54.479Z,74.28
2023-09-07T02:33:44.420Z,74.28
2023-09-07T02:34:34.573Z,74.35
2023-09-07T02:35:24.714Z,74.38
2023-09-07T02:36:14.775Z,74.38
2023-09-07T02:37:04.696Z,74.37
2023-09-07T02:37:54.866Z,74.35
2023-09-07T02:38:44.848Z,74.37
2023-09-07T02:39:34.921Z,74.40
2023-09-07T02:40:24.935Z,74.40
2023-09-07T02:41:15.154Z,74.40
2023-09-07T02:42:05.096Z,74.47
2023-09-07T02:42:55.215Z,74.45
2023-09-07T02:43:45.198Z,74.44
2023-09-07T02:44:35.362Z,74.46
2023-09-07T02:45:25.387Z,74.50
2023-09-07T02:46:15.457Z,74.51
2023-09-07T02:47:05.425Z,74.50
2023-09-07T02:47:55.664Z,74.56
2023-09-07T02:48:45.611Z,74.51
2023-09-07T02:49:35.708Z,74.54
2023-09-07T02:50:25.688Z,74.55
2023-09-07T02:51:16.176Z,74.51
2023-09-07T02:52:06.084Z,74.55
2023-09-07T02:52:56.206Z,74.53
2023-09-07T02:53:46.186Z,74.60
2023-09-07T02:54:36.354Z,74.56
2023-09-07T02:55:26.325Z,74.51
2023-09-07T02:56:16.438Z,74.53
2023-09-07T02:57:06.417Z,74.53
2023-09-07T02:57:56.565Z,74.58
2023-09-07T02:58:46.553Z,74.54
2023-09-07T02:59:36.703Z,74.58
2023-09-07T03:00:26.636Z,74.62
2023-09-07T03:01:16.907Z,74.65
2023-09-07T03:02:06.796Z,74.57
2023-09-07T03:02:57.005Z,74.60
2023-09-07T03:03:46.948Z,74.63
2023-09-07T03:04:36.992Z,74.58
2023-09-07T03:05:26.994Z,74.58
2023-09-07T03:06:17.131Z,74.58
2023-09-07T03:07:07.112Z,74.59
2023-09-07T03:07:57.264Z,74.59
2023-09-07T03:08:47.175Z,74.61
2023-09-07T03:09:37.286Z,74.62
2023-09-07T03:10:27.361Z,74.58
2023-09-07T03:11:17.469Z,74.62
2023-09-07T03:12:07.405Z,74.63
2023-09-07T03:12:57.490Z,74.60
2023-09-07T03:13:47.558Z,74.57
2023-09-07T03:14:37.627Z,74.61
2023-09-07T03:15:27.615Z,74.60
2023-09-07T03:16:17.877Z,74.59
2023-09-07T03:17:07.865Z,74.60
2023-09-07T03:17:57.949Z,74.56
2023-09-07T03:18:47.862Z,74.60
2023-09-07T03:19:37.968Z,74.61
2023-09-07T03:20:28.254Z,74.63
2023-09-07T03:21:18.363Z,74.58
2023-09-07T03:22:08.439Z,74.59
2023-09-07T03:22:58.796Z,74.58
2023-09-07T03:23:48.753Z,74.57
2023-09-07T03:24:38.922Z,74.59
2023-09-07T03:25:28.936Z,74.61
2023-09-07T03:26:19.005Z,74.59
2023-09-07T03:27:08.982Z,74.61
2023-09-07T03:27:59.206Z,74.65
2023-09-07T03:28:49.118Z,74.63
2023-09-07T03:29:39.265Z,74.60
2023-09-07T03:30:29.245Z,74.63
2023-09-07T03:31:19.395Z,74.65
2023-09-07T03:32:09.452Z,74.62
2023-09-07T03:32:59.609Z,74.62
2023-09-07T03:33:49.499Z,74.62
2023-09-07T03:34:39.605Z,74.56
2023-09-07T03:35:29.634Z,74.59
2023-09-07T03:36:19.792Z,74.57
2023-09-07T03:37:09.815Z,74.55
2023-09-07T03:37:59.901Z,74.56
2023-09-07T03:38:49.995Z,74.56
2023-09-07T03:39:40.069Z,74.58
2023-09-07T03:40:30.037Z,74.57
2023-09-07T03:41:20.127Z,74.58
2023-09-07T03:42:10.150Z,74.56
2023-09-07T03:43:00.265Z,74.54
2023-09-07T03:43:50.269Z,74.54
2023-09-07T03:44:40.395Z,74.51
2023-09-07T03:45:30.372Z,74.57
2023-09-07T03:46:20.597Z,74.53
2023-09-07T03:47:10.543Z,74.51
2023-09-07T03:48:00.644Z,74.51
2023-09-07T03:48:50.673Z,74.48
2023-09-07T03:49:40.739Z,74.71
2023-09-07T03:50:30.711Z,74.52
2023-09-07T03:51:20.913Z,74.52
2023-09-07T03:52:11.057Z,74.47
2023-09-07T03:53:01.168Z,74.48
2023-09-07T03:53:51.166Z,74.46
2023-09-07T03:54:41.308Z,74.44
2023-09-07T03:55:31.304Z,74.43
2023-09-07T03:56:21.461Z,74.44
2023-09-07T03:57:11.448Z,74.44
2023-09-07T03:58:01.589Z,74.48
2023-09-07T03:58:51.562Z,74.42
2023-09-07T03:59:41.635Z,74.41
2023-09-07T04:00:31.680Z,74.43
2023-09-07T04:01:21.878Z,74.39
2023-09-07T04:02:12.001Z,74.41
2023-09-07T04:03:01.994Z,74.37
2023-09-07T04:03:52.200Z,74.41
2023-09-07T04:04:42.043Z,74.39
2023-09-07T04:05:32.037Z,74.40
2023-09-07T04:06:22.147Z,74.39
2023-09-07T04:07:12.083Z,74.40
2023-09-07T04:08:02.163Z,74.40
2023-09-07T04:08:52.285Z,74.37
2023-09-07T04:09:44.658Z,74.41
2023-09-07T04:10:32.396Z,74.40
2023-09-07T04:11:22.492Z,74.39
2023-09-07T04:12:12.743Z,74.42
2023-09-07T04:13:02.715Z,74.42
2023-09-07T04:13:52.732Z,74.38
2023-09-07T04:14:42.928Z,74.42
2023-09-07T04:15:32.864Z,74.37
2023-09-07T04:16:23.088Z,74.36
2023-09-07T04:17:12.974Z,74.38
2023-09-07T04:18:03.070Z,74.41
2023-09-07T04:18:53.233Z,74.35
2023-09-07T04:19:43.309Z,74.41
2023-09-07T04:20:33.287Z,74.38
2023-09-07T04:21:23.439Z,74.36
2023-09-07T04:22:13.410Z,74.38
2023-09-07T04:23:03.472Z,74.44
2023-09-07T04:23:53.523Z,74.41
2023-09-07T04:24:43.635Z,74.38
2023-09-07T04:25:33.656Z,74.39
2023-09-07T04:26:23.769Z,74.42
2023-09-07T04:27:13.770Z,74.40
2023-09-07T04:28:03.885Z,74.34
2023-09-07T04:28:53.881Z,74.36
2023-09-07T04:29:43.967Z,74.39
2023-09-07T04:30:34.071Z,74.38
2023-09-07T04:31:24.105Z,74.36
2023-09-07T04:32:14.143Z,74.34
2023-09-07T04:33:04.224Z,74.38
2023-09-07T04:33:54.278Z,74.45
2023-09-07T04:34:44.615Z,74.45
2023-09-07T04:35:34.687Z,74.43
2023-09-07T04:36:24.762Z,74.64
2023-09-07T04:37:14.792Z,74.56
2023-09-07T04:38:04.921Z,75.12
2023-09-07T04:38:54.906Z,74.71
2023-09-07T04:39:44.967Z,74.58
2023-09-07T04:40:35.111Z,74.49
2023-09-07T04:41:25.115Z,74.45
2023-09-07T04:42:15.258Z,75.38
2023-09-07T04:43:05.186Z,74.94
2023-09-07T04:43:55.799Z,74.74
2023-09-07T04:44:45.562Z,74.62
2023-09-07T04:45:35.659Z,75.57
2023-09-07T04:46:25.762Z,75.57
2023-09-07T04:47:15.801Z,74.60
2023-09-07T04:48:05.846Z,74.78
2023-09-07T04:48:55.871Z,74.99
2023-09-07T04:49:45.952Z,74.63
2023-09-07T04:50:36.003Z,74.70
2023-09-07T04:51:26.086Z,75.85
2023-09-07T04:52:16.108Z,75.25
2023-09-07T04:53:06.322Z,74.65
2023-09-07T04:53:56.251Z,74.50
2023-09-07T04:54:46.326Z,74.64
2023-09-07T04:55:36.396Z,74.56
2023-09-07T04:56:26.517Z,74.44
2023-09-07T04:57:16.614Z,74.40
2023-09-07T04:58:06.719Z,74.40
2023-09-07T04:58:56.751Z,74.58
2023-09-07T04:59:47.157Z,74.52
2023-09-07T05:00:37.126Z,74.36
2023-09-07T05:01:27.312Z,74.49
2023-09-07T05:02:17.274Z,74.46
2023-09-07T05:03:07.462Z,74.86
2023-09-07T05:03:57.387Z,74.47
2023-09-07T05:04:47.395Z,74.46
2023-09-07T05:05:37.461Z,74.56
2023-09-07T05:06:27.663Z,74.50
2023-09-07T05:07:17.591Z,75.28
2023-09-07T05:08:07.690Z,74.64
2023-09-07T05:08:57.893Z,75.31
2023-09-07T05:09:47.984Z,74.60
2023-09-07T05:10:38.079Z,74.64
2023-09-07T05:11:28.122Z,74.50
2023-09-07T05:12:18.225Z,74.46
2023-09-07T05:13:08.217Z,74.44
2023-09-07T05:14:04.434Z,74.75
2023-09-07T05:14:48.343Z,74.54
2023-09-07T05:15:38.409Z,74.60
2023-09-07T05:16:28.583Z,75.24
2023-09-07T05:17:18.512Z,75.93
2023-09-07T05:18:08.664Z,74.88
2023-09-07T05:18:58.634Z,74.75
2023-09-07T05:19:48.666Z,74.58
2023-09-07T05:20:38.739Z,74.60
2023-09-07T05:21:28.854Z,74.58
2023-09-07T05:22:18.857Z,74.55
2023-09-07T05:23:08.937Z,74.46
2023-09-07T05:23:58.980Z,74.34
2023-09-07T05:24:49.031Z,74.95
2023-09-07T05:25:39.086Z,74.70
2023-09-07T05:26:29.197Z,74.46
2023-09-07T05:27:19.204Z,74.44
2023-09-07T05:28:09.265Z,74.40
2023-09-07T05:28:59.330Z,74.58
2023-09-07T05:29:49.440Z,74.53
2023-09-07T05:30:39.530Z,74.39
2023-09-07T05:31:29.610Z,74.36
2023-09-07T05:32:19.574Z,74.33
2023-09-07T05:33:09.700Z,74.32
2023-09-07T05:34:00.027Z,74.30
2023-09-07T05:34:50.036Z,74.30
2023-09-07T05:35:40.097Z,74.28
2023-09-07T05:36:30.452Z,74.26
2023-09-07T05:37:20.544Z,74.30
2023-09-07T05:38:10.538Z,74.33
2023-09-07T05:39:00.601Z,74.32
2023-09-07T05:39:50.768Z,74.41
2023-09-07T05:40:40.749Z,74.41
2023-09-07T05:41:30.844Z,74.32
2023-09-07T05:42:20.867Z,74.36
2023-09-07T05:43:10.955Z,74.34
2023-09-07T05:44:00.978Z,74.35
2023-09-07T05:44:52.435Z,74.29
2023-09-07T05:45:41.081Z,74.29
2023-09-07T05:46:31.246Z,74.30
2023-09-07T05:47:21.261Z,74.34
2023-09-07T05:48:11.331Z,74.33
2023-09-07T05:49:01.392Z,74.30
2023-09-07T05:49:51.432Z,74.29
2023-09-07T05:50:41.455Z,74.28
2023-09-07T05:51:31.557Z,74.31
2023-09-07T05:52:21.633Z,74.28
2023-09-07T05:53:11.644Z,74.34
2023-09-07T05:54:01.715Z,74.29
2023-09-07T05:54:51.912Z,74.27
2023-09-07T05:55:41.878Z,74.30
2023-09-07T05:56:31.877Z,74.35
2023-09-07T05:57:21.913Z,74.28
2023-09-07T05:58:11.985Z,74.31
2023-09-07T05:59:02.017Z,74.32
2023-09-07T05:59:52.099Z,74.28
2023-09-07T06:00:42.266Z,74.34
2023-09-07T06:01:32.237Z,74.30
2023-09-07T06:02:22.326Z,74.34
2023-09-07T06:03:12.549Z,74.33
2023-09-07T06:04:02.576Z,74.32
2023-09-07T06:04:52.435Z,74.34
2023-09-07T06:05:42.500Z,74.34
2023-09-07T06:06:32.603Z,74.28
2023-09-07T06:07:22.641Z,74.33
2023-09-07T06:08:12.699Z,74.33
2023-09-07T06:09:02.861Z,74.34
2023-09-07T06:09:52.816Z,74.35
2023-09-07T06:10:42.881Z,74.31
2023-09-07T06:11:33.294Z,74.35
2023-09-07T06:12:23.214Z,74.30
2023-09-07T06:13:13.302Z,74.29
2023-09-07T06:14:03.346Z,74.32
2023-09-07T06:14:53.441Z,74.32
2023-09-07T06:15:43.500Z,74.31
2023-09-07T06:16:33.657Z,74.35
2023-09-07T06:17:23.668Z,74.33
2023-09-07T06:18:13.732Z,74.26
2023-09-07T06:19:03.749Z,74.31
2023-09-07T06:19:54.790Z,74.31
2023-09-07T06:20:44.097Z,74.38
2023-09-07T06:21:34.167Z,74.39
2023-09-07T06:22:24.250Z,74.39
2023-09-07T06:23:14.274Z,74.34
2023-09-07T06:24:04.345Z,74.36
2023-09-07T06:24:54.424Z,74.38
2023-09-07T06:25:44.465Z,74.37
2023-09-07T06:26:34.560Z,74.38
2023-09-07T06:27:24.586Z,74.37
2023-09-07T06:28:14.827Z,74.42
2023-09-07T06:29:04.887Z,74.43
2023-09-07T06:29:54.963Z,74.45
2023-09-07T06:30:45.038Z,74.50
2023-09-07T06:31:35.282Z,74.43
2023-09-07T06:32:25.199Z,74.45
2023-09-07T06:33:15.214Z,74.49
2023-09-07T06:34:05.238Z,74.49
2023-09-07T06:34:56.363Z,74.51
2023-09-07T06:35:45.357Z,74.50
2023-09-07T06:36:47.309Z,74.56
2023-09-07T06:37:26.476Z,74.56
2023-09-07T06:38:15.762Z,74.60
2023-09-07T06:39:05.605Z,74.56
2023-09-07T06:39:55.669Z,74.59
2023-09-07T06:40:45.736Z,74.57
2023-09-07T06:41:35.834Z,74.55
2023-09-07T06:42:25.844Z,74.63
2023-09-07T06:43:15.983Z,74.62
2023-09-07T06:44:06.006Z,74.61
2023-09-07T06:44:56.088Z,74.67
2023-09-07T06:45:46.118Z,74.61
2023-09-07T06:46:36.259Z,74.58
2023-09-07T06:47:26.263Z,74.63
2023-09-07T06:48:16.348Z,74.60
2023-09-07T06:49:06.353Z,74.65
2023-09-07T06:49:56.431Z,74.70
2023-09-07T06:50:46.521Z,74.70
2023-09-07T06:51:36.542Z,74.71
2023-09-07T06:52:26.666Z,74.69
2023-09-07T06:53:16.609Z,74.68
2023-09-07T06:54:06.725Z,74.75
2023-09-07T06:54:56.738Z,74.73
2023-09-07T06:55:46.791Z,74.76
2023-09-07T06:56:36.930Z,74.76
2023-09-07T06:57:27.038Z,74.73
2023-09-07T06:58:17.021Z,74.75
2023-09-07T06:59:07.076Z,74.74
2023-09-07T06:59:57.152Z,74.72
2023-09-07T07:00:47.264Z,74.71
2023-09-07T07:01:37.320Z,74.70
2023-09-07T07:02:27.457Z,74.78
2023-09-07T07:03:17.438Z,74.76
2023-09-07T07:04:07.582Z,74.82
2023-09-07T07:04:57.513Z,74.78
2023-09-07T07:05:47.522Z,74.66
2023-09-07T07:06:37.773Z,74.72
2023-09-07T07:07:27.836Z,74.70
2023-09-07T07:08:17.878Z,74.73
2023-09-07T07:09:08.217Z,74.75
2023-09-07T07:09:58.285Z,74.74
2023-09-07T07:10:48.419Z,74.72
2023-09-07T07:11:38.667Z,74.70
2023-09-07T07:12:28.681Z,74.70
2023-09-07T07:13:18.819Z,74.72
2023-09-07T07:14:08.791Z,74.68
2023-09-07T07:14:58.866Z,74.70
2023-09-07T07:15:48.934Z,74.67
2023-09-07T07:16:39.134Z,74.65
2023-09-07T07:17:29.117Z,74.65
2023-09-07T07:18:19.183Z,74.71
2023-09-07T07:19:09.163Z,74.71
2023-09-07T07:19:59.344Z,74.67
2023-09-07T07:20:49.499Z,74.74
2023-09-07T07:21:39.602Z,74.68
2023-09-07T07:22:29.698Z,74.68
2023-09-07T07:23:19.679Z,74.63
2023-09-07T07:24:09.751Z,74.66
2023-09-07T07:24:59.828Z,74.62
2023-09-07T07:25:49.906Z,74.67
2023-09-07T07:26:39.972Z,74.67
2023-09-07T07:27:29.998Z,74.66
2023-09-07T07:28:20.066Z,74.68
2023-09-07T07:29:10.137Z,74.59
2023-09-07T07:30:00.439Z,74.66
2023-09-07T07:30:50.414Z,74.63
2023-09-07T07:31:40.550Z,74.67
2023-09-07T07:32:30.574Z,74.73
2023-09-07T07:33:20.740Z,74.67
2023-09-07T07:34:10.681Z,74.69
2023-09-07T07:35:00.766Z,74.64
2023-09-07T07:35:50.863Z,74.71
2023-09-07T07:36:40.867Z,74.71
2023-09-07T07:37:30.903Z,74.68
2023-09-07T07:38:20.972Z,74.66
2023-09-07T07:39:11.447Z,74.73
2023-09-07T07:40:01.373Z,74.74
2023-09-07T07:40:51.460Z,74.70
2023-09-07T07:41:43.561Z,74.71
2023-09-07T07:42:31.784Z,74.76
2023-09-07T07:43:21.852Z,74.74
2023-09-07T07:44:11.928Z,74.79
2023-09-07T07:45:02.003Z,74.82
2023-09-07T07:45:52.152Z,74.90
2023-09-07T07:46:42.257Z,74.86
2023-09-07T07:47:32.178Z,74.83
2023-09-07T07:48:22.319Z,74.85
2023-09-07T07:49:12.371Z,74.90
2023-09-07T07:50:02.427Z,74.89
2023-09-07T07:50:52.456Z,74.95
2023-09-07T07:51:42.562Z,74.95
2023-09-07T07:52:32.592Z,74.95
2023-09-07T07:53:22.773Z,74.99
2023-09-07T07:54:12.669Z,74.96
2023-09-07T07:55:02.741Z,74.90
2023-09-07T07:55:52.907Z,74.96
2023-09-07T07:56:42.897Z,74.98
2023-09-07T07:57:32.920Z,75.01
2023-09-07T07:58:22.987Z,74.99
2023-09-07T07:59:13.219Z,74.98
2023-09-07T08:00:03.360Z,74.98
2023-09-07T08:00:53.338Z,75.04
2023-09-07T08:01:43.471Z,75.11
2023-09-07T08:02:33.520Z,75.01
2023-09-07T08:03:23.540Z,75.03
2023-09-07T08:04:13.650Z,75.04
2023-09-07T08:05:03.811Z,75.02
2023-09-07T08:05:53.713Z,75.07
2023-09-07T08:06:43.816Z,75.03
2023-09-07T08:07:33.896Z,75.04
2023-09-07T08:08:23.910Z,75.06
2023-09-07T08:09:13.970Z,75.06
2023-09-07T08:10:04.039Z,75.06
2023-09-07T08:10:54.177Z,75.03
2023-09-07T08:11:44.219Z,75.03
2023-09-07T08:12:34.245Z,75.12
2023-09-07T08:13:24.314Z,75.02
2023-09-07T08:14:14.402Z,74.95
2023-09-07T08:15:04.645Z,74.96
2023-09-07T08:15:54.773Z,75.04
2023-09-07T08:16:44.971Z,75.02
2023-09-07T08:17:35.444Z,75.03
2023-09-07T08:18:25.236Z,75.08
2023-09-07T08:19:15.216Z,75.01
2023-09-07T08:20:05.246Z,75.07
2023-09-07T08:20:55.312Z,75.07
2023-09-07T08:21:45.377Z,75.02
2023-09-07T08:22:35.455Z,74.99
2023-09-07T08:23:25.550Z,75.05
2023-09-07T08:24:15.568Z,75.09
2023-09-07T08:25:05.816Z,75.07
2023-09-07T08:25:55.941Z,75.05
2023-09-07T08:26:45.960Z,75.04
2023-09-07T08:27:35.977Z,74.99
2023-09-07T08:28:26.046Z,75.01
2023-09-07T08:29:16.113Z,75.00
2023-09-07T08:30:06.179Z,75.01
2023-09-07T08:30:56.436Z,75.03
2023-09-07T08:31:46.332Z,74.96
2023-09-07T08:32:36.474Z,74.99
2023-09-07T08:33:26.577Z,75.02
2023-09-07T08:34:16.622Z,75.07
2023-09-07T08:35:06.747Z,75.03
2023-09-07T08:35:56.728Z,75.06
2023-09-07T08:36:46.840Z,75.03
2023-09-07T08:37:36.829Z,74.99
2023-09-07T08:38:26.899Z,74.97
2023-09-07T08:39:17.042Z,74.96
2023-09-07T08:40:07.005Z,74.99
2023-09-07T08:40:57.142Z,75.01
2023-09-07T08:42:00.774Z,75.04
2023-09-07T08:42:38.233Z,75.17
2023-09-07T08:43:27.250Z,75.14
2023-09-07T08:44:17.287Z,75.15
2023-09-07T08:45:07.499Z,75.17
2023-09-07T08:45:57.477Z,75.16
2023-09-07T08:46:47.508Z,75.16
2023-09-07T08:47:37.525Z,75.23
2023-09-07T08:48:27.547Z,75.26
2023-09-07T08:49:17.569Z,75.29
2023-09-07T08:50:07.710Z,75.29
2023-09-07T08:50:57.701Z,75.23
2023-09-07T08:51:47.787Z,75.24
2023-09-07T08:52:37.909Z,75.30
2023-09-07T08:53:27.927Z,75.28
2023-09-07T08:54:17.995Z,75.37
2023-09-07T08:55:08.121Z,75.36
2023-09-07T08:55:58.139Z,75.31
2023-09-07T08:56:48.304Z,75.31
2023-09-07T08:57:38.268Z,75.38
2023-09-07T08:58:28.380Z,75.34
2023-09-07T08:59:18.386Z,75.26
2023-09-07T09:00:08.473Z,75.32
2023-09-07T09:01:07.449Z,75.34
2023-09-07T09:01:48.714Z,75.44
2023-09-07T09:02:38.849Z,75.21
2023-09-07T09:03:28.853Z,75.17
2023-09-07T09:04:18.782Z,75.09
2023-09-07T09:05:08.758Z,75.08
2023-09-07T09:05:58.951Z,75.19
2023-09-07T09:06:49.038Z,75.18
2023-09-07T09:07:39.084Z,75.16
2023-09-07T09:08:29.758Z,75.21
2023-09-07T09:09:19.490Z,75.26
2023-09-07T09:10:09.555Z,75.24
2023-09-07T09:10:59.580Z,75.25
2023-09-07T09:11:49.646Z,75.22
2023-09-07T09:12:39.658Z,75.23
2023-09-07T09:13:29.745Z,75.30
2023-09-07T09:14:19.786Z,75.32
2023-09-07T09:15:10.030Z,75.34
2023-09-07T09:16:00.222Z,75.28
2023-09-07T09:16:50.183Z,75.45
2023-09-07T09:17:40.274Z,75.40
2023-09-07T09:18:30.786Z,75.37
2023-09-07T09:19:20.335Z,75.33
2023-09-07T09:20:10.403Z,75.36
2023-09-07T09:21:00.463Z,75.47
2023-09-07T09:21:50.546Z,75.44
2023-09-07T09:22:40.574Z,75.40
2023-09-07T09:23:30.672Z,75.46
2023-09-07T09:24:20.912Z,75.48
2023-09-07T09:25:10.976Z,75.48
2023-09-07T09:26:01.079Z,75.53
2023-09-07T09:26:51.080Z,75.51
2023-09-07T09:27:41.132Z,75.52
2023-09-07T09:28:31.462Z,75.52
2023-09-07T09:29:21.219Z,75.55
2023-09-07T09:30:11.281Z,75.56
2023-09-07T09:31:01.377Z,75.57
2023-09-07T09:31:51.434Z,75.58
2023-09-07T09:32:41.478Z,75.66
2023-09-07T09:33:31.804Z,75.59
2023-09-07T09:34:21.925Z,75.57
2023-09-07T09:35:11.921Z,75.58
2023-09-07T09:36:02.010Z,75.60
2023-09-07T09:36:52.070Z,75.57
2023-09-07T09:37:42.101Z,75.61
2023-09-07T09:38:32.425Z,75.59
2023-09-07T09:39:22.246Z,75.56
2023-09-07T09:40:12.374Z,75.60
2023-09-07T09:41:02.364Z,75.68
2023-09-07T09:41:52.486Z,75.58
2023-09-07T09:42:42.741Z,75.55
2023-09-07T09:43:32.821Z,75.53
2023-09-07T09:44:22.898Z,75.53
2023-09-07T09:45:13.167Z,75.48
2023-09-07T09:46:03.728Z,75.54
2023-09-07T09:46:53.409Z,75.55
2023-09-07T09:47:43.435Z,75.49
2023-09-07T09:48:33.834Z,75.55
2023-09-07T09:49:23.480Z,75.50
2023-09-07T09:50:13.566Z,75.54
2023-09-07T09:51:03.746Z,75.57
2023-09-07T09:51:53.831Z,75.62
2023-09-07T09:52:43.943Z,75.54
2023-09-07T09:53:34.289Z,75.53
2023-09-07T09:54:24.267Z,75.48
2023-09-07T09:55:14.471Z,75.52
2023-09-07T09:56:04.451Z,75.56
2023-09-07T09:56:54.481Z,75.52
2023-09-07T09:57:44.480Z,75.52
2023-09-07T09:58:34.778Z,75.52
2023-09-07T09:59:24.597Z,75.53
2023-09-07T10:00:14.665Z,75.50
2023-09-07T10:01:04.745Z,75.48
2023-09-07T10:01:54.844Z,75.49
2023-09-07T10:02:44.821Z,75.60
2023-09-07T10:03:34.908Z,75.51
2023-09-07T10:04:24.934Z,75.54
2023-09-07T10:05:15.074Z,75.54
2023-09-07T10:06:05.085Z,75.54
2023-09-07T10:06:55.157Z,75.52
2023-09-07T10:07:45.191Z,75.52
2023-09-07T10:08:35.235Z,75.47
2023-09-07T10:09:25.518Z,75.59
2023-09-07T10:10:15.608Z,75.57
2023-09-07T10:11:05.670Z,75.56
2023-09-07T10:11:55.728Z,75.55
2023-09-07T10:12:45.780Z,75.53
2023-09-07T10:13:35.798Z,75.53
2023-09-07T10:14:25.899Z,75.50
2023-09-07T10:15:15.936Z,75.55
2023-09-07T10:16:06.075Z,75.47
2023-09-07T10:16:56.235Z,75.53
2023-09-07T10:17:46.211Z,75.48
2023-09-07T10:18:36.153Z,75.56
2023-09-07T10:19:26.252Z,75.55
2023-09-07T10:20:16.321Z,75.53
2023-09-07T10:21:06.395Z,75.55
2023-09-07T10:21:56.445Z,75.53
2023-09-07T10:22:46.463Z,75.56
2023-09-07T10:23:36.555Z,75.62
2023-09-07T10:24:26.614Z,75.58
2023-09-07T10:25:16.888Z,75.54
2023-09-07T10:26:07.540Z,75.48
2023-09-07T10:26:57.025Z,75.47
2023-09-07T10:27:47.095Z,75.53
2023-09-07T10:28:37.217Z,75.57
2023-09-07T10:29:27.229Z,75.54
2023-09-07T10:30:17.339Z,75.52
2023-09-07T10:31:07.410Z,75.55
2023-09-07T10:31:57.559Z,75.59
2023-09-07T10:32:47.547Z,75.61
2023-09-07T10:33:38.012Z,75.57
2023-09-07T10:34:27.816Z,75.57
2023-09-07T10:35:17.896Z,75.54
2023-09-07T10:36:07.962Z,75.59
2023-09-07T10:36:58.317Z,75.62
2023-09-07T10:37:48.378Z,75.63
2023-09-07T10:38:38.367Z,75.61
2023-09-07T10:39:28.428Z,75.61
2023-09-07T10:40:18.496Z,75.50
2023-09-07T10:41:08.597Z,75.57
2023-09-07T10:41:58.594Z,75.56
2023-09-07T10:42:48.657Z,75.63
2023-09-07T10:43:38.750Z,75.61
2023-09-07T10:44:28.795Z,75.51